KMHE/MHE METAR and TAF weather

Enter ICAO airport designator
Station Type Date Time Source
KMHE METAR 2024/06/15 22:53 UTC NOAA

KMHE 152253Z AUTO 16013G20KT 10SM CLR 26/21 A2965 RMK AO2 SLP034 T02560206


Station Type Date Time Source
KMHE Decoded METAR 2024/06/15 22:53 UTC NOAA

MITCHELL MUNICIPAL AIRPORT, SD, United States (KMHE) 43-46N 98-02W
Jun 15, 2024 - 06:53 PM EDT / 2024.06.15 2253 UTC
Wind: from the SSE (160 degrees) at 15 MPH (13 KT) gusting to 23 MPH (20 KT):0
Visibility: 10 mile(s):0
Sky conditions: clear
Temperature: 78.1 F (25.6 C)
Dew Point: 69.1 F (20.6 C)
Relative Humidity: 73%
Pressure (altimeter): 29.65 in. Hg (1004 hPa)
ob: KMHE 152253Z AUTO 16013G20KT 10SM CLR 26/21 A2965 RMK AO2 SLP034 T02560206
cycle: 23

Station Type Date Time Source
KMHE TAF UTC NOAA

Error!

Example: see airport list